createdAt,value
2017-10-20T00:02:34.986Z,16.13
2017-10-20T00:17:34.954Z,13.17
2017-10-20T00:32:36.438Z,13.20
2017-10-20T00:47:34.401Z,13.53
2017-10-20T01:02:34.305Z,15.93
2017-10-20T01:17:34.242Z,18.77
2017-10-20T01:32:34.641Z,16.00
2017-10-20T01:47:34.660Z,15.50
2017-10-20T02:02:34.609Z,13.37
2017-10-20T02:17:34.561Z,12.83
2017-10-20T02:32:34.916Z,13.43
2017-10-20T02:47:34.968Z,14.53
2017-10-20T03:02:35.104Z,17.17
2017-10-20T03:17:34.805Z,13.53
2017-10-20T03:32:34.284Z,15.50
2017-10-20T03:47:39.976Z,17.03
2017-10-20T04:02:35.152Z,18.40
2017-10-20T04:17:35.177Z,18.07
2017-10-20T04:32:34.584Z,18.73
2017-10-20T04:47:36.471Z,23.87
2017-10-20T05:02:34.511Z,25.63
2017-10-20T05:17:35.226Z,23.40
2017-10-20T05:32:34.860Z,25.57
2017-10-20T05:47:34.816Z,19.90
2017-10-20T06:02:34.783Z,25.23
2017-10-20T06:17:42.651Z,30.20
2017-10-20T06:32:35.120Z,28.53
2017-10-20T06:47:35.077Z,29.67
2017-10-20T07:02:37.144Z,29.33
2017-10-20T07:17:35.011Z,38.60
2017-10-20T07:32:33.436Z,40.13
2017-10-20T07:47:33.377Z,42.17
2017-10-20T08:02:34.335Z,42.53
2017-10-20T08:17:34.236Z,41.27
2017-10-20T08:32:34.642Z,32.23
2017-10-20T08:47:34.693Z,32.50
2017-10-20T09:02:34.595Z,27.83
2017-10-20T09:17:35.221Z,23.97
2017-10-20T09:32:35.037Z,24.30
2017-10-20T09:47:34.938Z,22.60
2017-10-20T10:02:36.886Z,31.30
2017-10-20T10:17:34.861Z,25.50
2017-10-20T10:32:34.253Z,32.23
2017-10-20T10:47:34.346Z,24.43
2017-10-20T11:02:34.640Z,21.23
2017-10-20T11:17:35.091Z,16.43
2017-10-20T11:32:34.519Z,17.20
2017-10-20T11:47:34.464Z,13.37
2017-10-20T12:02:34.425Z,10.23
2017-10-20T12:17:34.397Z,8.33
2017-10-20T12:32:34.813Z,6.70
2017-10-20T12:47:34.723Z,6.10
2017-10-20T13:02:34.684Z,6.50
2017-10-20T13:17:34.681Z,5.37
2017-10-20T13:32:35.125Z,6.30
2017-10-20T13:47:34.998Z,7.70
2017-10-20T14:02:34.972Z,5.80
2017-10-20T14:17:34.910Z,7.70
2017-10-20T14:32:34.383Z,9.50
2017-10-20T14:47:34.337Z,8.97
2017-10-20T15:02:34.281Z,12.17
2017-10-20T15:17:34.206Z,12.03
2017-10-20T15:32:34.799Z,12.83
2017-10-20T15:47:34.574Z,8.10
2017-10-20T16:02:34.521Z,10.43
2017-10-20T16:17:36.614Z,5.77
2017-10-20T16:32:35.025Z,6.80
2017-10-20T16:47:34.942Z,12.70
2017-10-20T17:02:34.989Z,21.73
2017-10-20T17:17:35.282Z,14.77
2017-10-20T17:32:34.281Z,14.10
2017-10-20T17:47:34.188Z,9.30
2017-10-20T18:02:34.205Z,9.90
2017-10-20T18:17:35.116Z,25.63
2017-10-20T18:32:34.602Z,15.37
2017-10-20T18:47:37.523Z,21.13
2017-10-20T19:02:35.235Z,15.60
2017-10-20T19:17:34.409Z,10.97
2017-10-20T19:32:34.880Z,12.43
2017-10-20T19:47:34.831Z,23.27
2017-10-20T20:02:34.840Z,15.83
2017-10-20T20:17:34.744Z,14.13
2017-10-20T20:32:51.877Z,16.77
2017-10-20T20:47:37.093Z,12.60
2017-10-20T21:02:35.096Z,17.73
2017-10-20T21:17:35.021Z,20.00
2017-10-20T21:32:34.490Z,11.73
2017-10-20T21:47:34.314Z,8.63
2017-10-20T22:02:34.303Z,8.70
2017-10-20T22:17:33.820Z,12.23
2017-10-20T22:32:34.796Z,13.13
2017-10-20T22:47:36.681Z,14.30
2017-10-20T23:02:34.626Z,13.23
2017-10-20T23:17:34.094Z,13.13
2017-10-20T23:32:35.526Z,14.23
2017-10-20T23:47:34.960Z,9.70
